createdAt,value
2023-03-15T00:00:18.191Z,8.80
2023-03-15T00:01:18.166Z,5.20
2023-03-15T00:02:18.160Z,7.40
2023-03-15T00:03:18.162Z,7.50
2023-03-15T00:04:18.108Z,7.50
2023-03-15T00:05:18.093Z,10.20
2023-03-15T00:06:18.075Z,8.60
2023-03-15T00:07:18.052Z,7.50
2023-03-15T00:08:18.034Z,7.50
2023-03-15T00:09:18.012Z,11.50
2023-03-15T00:10:18.025Z,8.10
2023-03-15T00:11:18.002Z,13.50
2023-03-15T00:12:17.982Z,12.60
2023-03-15T00:13:17.964Z,10.90
2023-03-15T00:14:17.961Z,8.00
2023-03-15T00:15:26.628Z,7.90
2023-03-15T00:16:18.007Z,9.00
2023-03-15T00:17:17.916Z,9.30
2023-03-15T00:18:17.924Z,11.40
2023-03-15T00:19:17.897Z,11.50
2023-03-15T00:20:17.912Z,8.90
2023-03-15T00:21:17.857Z,8.00
2023-03-15T00:22:17.871Z,11.10
2023-03-15T00:23:17.838Z,8.50
2023-03-15T00:24:17.849Z,13.50
2023-03-15T00:25:17.826Z,10.20
2023-03-15T00:26:17.815Z,10.40
2023-03-15T00:27:17.812Z,8.20
2023-03-15T00:28:17.778Z,10.60
2023-03-15T00:29:17.787Z,10.80
2023-03-15T00:30:17.773Z,8.30
2023-03-15T00:31:17.817Z,8.20
2023-03-15T00:32:17.749Z,9.00
2023-03-15T00:33:17.720Z,9.90
2023-03-15T00:34:17.698Z,12.10
2023-03-15T00:35:17.698Z,10.50
2023-03-15T00:36:17.684Z,9.60
2023-03-15T00:37:17.662Z,11.80
2023-03-15T00:38:17.670Z,9.50
2023-03-15T00:39:17.631Z,9.10
2023-03-15T00:40:17.655Z,7.80
2023-03-15T00:41:17.619Z,13.10
2023-03-15T00:42:17.607Z,8.20
2023-03-15T00:43:17.579Z,11.10
2023-03-15T00:44:17.571Z,7.00
2023-03-15T00:45:17.570Z,10.50
2023-03-15T00:46:17.616Z,12.20
2023-03-15T00:47:17.532Z,10.40
2023-03-15T00:48:17.519Z,10.80
2023-03-15T00:49:17.510Z,11.40
2023-03-15T00:50:17.514Z,7.20
2023-03-15T00:51:17.472Z,7.60
2023-03-15T00:52:17.472Z,7.50
2023-03-15T00:53:17.455Z,9.90
2023-03-15T00:54:17.449Z,10.00
2023-03-15T00:55:17.439Z,10.20
2023-03-15T00:56:17.422Z,10.50
2023-03-15T00:57:17.416Z,11.60
2023-03-15T00:58:17.417Z,10.70
2023-03-15T00:59:17.384Z,8.90
2023-03-15T01:00:17.380Z,10.40
2023-03-15T01:01:17.458Z,7.30
2023-03-15T01:02:17.369Z,11.10
2023-03-15T01:03:17.362Z,9.90
2023-03-15T01:04:17.325Z,11.20
2023-03-15T01:05:17.326Z,9.60
2023-03-15T01:06:17.301Z,8.40
2023-03-15T01:07:17.270Z,9.80
2023-03-15T01:08:17.272Z,11.40
2023-03-15T01:09:17.240Z,9.50
2023-03-15T01:10:17.239Z,10.80
2023-03-15T01:11:17.224Z,10.70
2023-03-15T01:12:17.209Z,7.70
2023-03-15T01:13:17.199Z,10.10
2023-03-15T01:14:17.185Z,10.90
2023-03-15T01:15:17.200Z,8.50
2023-03-15T01:16:17.284Z,12.70
2023-03-15T01:17:17.143Z,12.60
2023-03-15T01:18:17.140Z,11.80
2023-03-15T01:19:17.126Z,10.30
2023-03-15T01:20:17.140Z,11.40
2023-03-15T01:21:17.097Z,9.70
2023-03-15T01:22:17.096Z,10.80
2023-03-15T01:23:17.082Z,10.10
2023-03-15T01:24:17.060Z,12.90
2023-03-15T01:25:17.065Z,10.80
2023-03-15T01:26:17.028Z,8.80
2023-03-15T01:27:17.022Z,11.20
2023-03-15T01:28:17.048Z,9.20
2023-03-15T01:29:17.001Z,10.90
2023-03-15T01:30:17.010Z,7.40
2023-03-15T01:31:17.046Z,12.80
2023-03-15T01:32:16.952Z,8.80
2023-03-15T01:33:16.945Z,9.50
2023-03-15T01:34:16.941Z,14.30
2023-03-15T01:35:16.926Z,12.50
2023-03-15T01:36:16.921Z,12.40
2023-03-15T01:37:16.896Z,10.80
2023-03-15T01:38:16.883Z,7.60
2023-03-15T01:39:16.872Z,10.00
2023-03-15T01:40:16.905Z,10.00
2023-03-15T01:41:16.852Z,11.20
2023-03-15T01:42:16.825Z,7.60
2023-03-15T01:43:16.843Z,8.20
2023-03-15T01:44:16.812Z,7.90
2023-03-15T01:45:16.853Z,9.90
2023-03-15T01:46:16.810Z,6.60
2023-03-15T01:47:16.799Z,7.40
2023-03-15T01:48:16.744Z,5.20
2023-03-15T01:49:16.735Z,7.20
2023-03-15T01:50:16.746Z,6.30
2023-03-15T01:51:16.737Z,8.30
2023-03-15T01:52:16.705Z,4.40
2023-03-15T01:53:16.673Z,6.70
2023-03-15T01:54:16.687Z,4.10
2023-03-15T01:55:16.712Z,4.90
2023-03-15T01:56:16.643Z,6.10
2023-03-15T01:57:16.636Z,3.90
2023-03-15T01:58:16.627Z,5.70
2023-03-15T01:59:16.644Z,4.50
2023-03-15T02:00:16.644Z,6.40
2023-03-15T02:01:16.640Z,4.70
2023-03-15T02:02:16.756Z,5.10
2023-03-15T02:03:16.552Z,3.90
2023-03-15T02:04:16.560Z,5.00
2023-03-15T02:05:16.556Z,3.90
2023-03-15T02:06:16.513Z,5.90
2023-03-15T02:07:16.506Z,5.80
2023-03-15T02:08:16.484Z,4.80
2023-03-15T02:09:16.482Z,3.50
2023-03-15T02:10:16.483Z,5.40
2023-03-15T02:11:16.454Z,4.40
2023-03-15T02:12:16.436Z,4.70
2023-03-15T02:13:16.449Z,4.20
2023-03-15T02:14:16.407Z,4.00
2023-03-15T02:15:16.429Z,5.20
2023-03-15T02:16:16.433Z,5.10
2023-03-15T02:17:16.383Z,3.90
2023-03-15T02:18:16.357Z,4.60
2023-03-15T02:19:16.355Z,4.90
2023-03-15T02:20:16.354Z,5.00
2023-03-15T02:21:16.343Z,5.70
2023-03-15T02:22:16.321Z,5.00
2023-03-15T02:23:16.318Z,5.40
2023-03-15T02:24:16.296Z,5.70
2023-03-15T02:25:16.312Z,4.10
2023-03-15T02:26:16.265Z,4.10
2023-03-15T02:27:16.292Z,2.70
2023-03-15T02:28:16.232Z,6.90
2023-03-15T02:29:16.252Z,3.50
2023-03-15T02:30:16.223Z,3.40
2023-03-15T02:31:16.243Z,6.70
2023-03-15T02:32:16.177Z,5.10
2023-03-15T02:33:16.176Z,5.80
2023-03-15T02:34:16.175Z,4.90
2023-03-15T02:35:16.159Z,4.00
2023-03-15T02:36:16.126Z,5.30
2023-03-15T02:37:16.135Z,4.30
2023-03-15T02:38:16.119Z,7.40
2023-03-15T02:39:16.086Z,6.20
2023-03-15T02:40:16.086Z,7.00
2023-03-15T02:41:16.092Z,2.90
2023-03-15T02:42:16.054Z,5.50
2023-03-15T02:43:16.037Z,5.40
2023-03-15T02:44:16.065Z,5.90
2023-03-15T02:45:16.018Z,4.70
2023-03-15T02:46:16.083Z,5.40
2023-03-15T02:47:15.999Z,7.10
2023-03-15T02:48:16.006Z,4.90
2023-03-15T02:49:15.969Z,4.30
2023-03-15T02:50:15.960Z,6.60
2023-03-15T02:51:15.950Z,5.20
2023-03-15T02:52:15.943Z,7.30
2023-03-15T02:53:15.939Z,6.00
2023-03-15T02:54:15.901Z,5.70
2023-03-15T02:55:15.915Z,8.80
2023-03-15T02:56:15.878Z,7.80
2023-03-15T02:57:15.865Z,6.90
2023-03-15T02:58:15.842Z,8.20
2023-03-15T02:59:15.852Z,8.30
2023-03-15T03:00:24.516Z,10.10
2023-03-15T03:01:15.865Z,8.50
2023-03-15T03:02:15.805Z,8.50
2023-03-15T03:03:15.806Z,9.30
2023-03-15T03:04:15.807Z,9.30
2023-03-15T03:05:15.779Z,7.00
2023-03-15T03:06:15.776Z,7.50
2023-03-15T03:07:15.758Z,8.50
2023-03-15T03:08:15.735Z,6.90
2023-03-15T03:09:15.723Z,8.30
2023-03-15T03:10:15.711Z,7.30
2023-03-15T03:11:15.689Z,8.60
2023-03-15T03:12:15.679Z,8.00
2023-03-15T03:13:15.669Z,5.80
2023-03-15T03:14:15.663Z,5.00
2023-03-15T03:15:15.649Z,7.80
2023-03-15T03:16:15.698Z,6.20
2023-03-15T03:17:15.611Z,6.50
2023-03-15T03:18:15.598Z,8.80
2023-03-15T03:19:15.590Z,8.50
2023-03-15T03:20:15.580Z,9.40
2023-03-15T03:21:15.559Z,8.40
2023-03-15T03:22:15.536Z,7.30
2023-03-15T03:23:15.535Z,9.90
2023-03-15T03:24:15.520Z,8.00
2023-03-15T03:25:15.514Z,5.70
2023-03-15T03:26:15.475Z,6.70
2023-03-15T03:27:15.473Z,9.30
2023-03-15T03:28:15.454Z,7.70
2023-03-15T03:29:15.458Z,4.90
2023-03-15T03:30:15.446Z,7.30
2023-03-15T03:31:15.494Z,6.80
2023-03-15T03:32:15.403Z,9.00
2023-03-15T03:33:15.426Z,9.40
2023-03-15T03:34:15.406Z,5.40
2023-03-15T03:35:16.246Z,13.50
2023-03-15T03:36:15.388Z,5.70
2023-03-15T03:37:15.356Z,8.30
2023-03-15T03:38:15.337Z,7.10
2023-03-15T03:39:15.325Z,7.80
2023-03-15T03:40:15.357Z,6.90
2023-03-15T03:41:15.346Z,7.40
2023-03-15T03:42:15.283Z,8.70
2023-03-15T03:43:15.263Z,9.40
2023-03-15T03:44:15.256Z,7.90
2023-03-15T03:45:15.274Z,10.40
2023-03-15T03:46:15.247Z,6.10
2023-03-15T03:47:15.215Z,8.50
2023-03-15T03:48:15.210Z,10.40
2023-03-15T03:49:15.192Z,7.80
2023-03-15T04:02:52.978Z,10.00
2023-03-15T04:03:52.944Z,12.40
2023-03-15T04:04:52.965Z,7.60
2023-03-15T04:05:52.942Z,8.40
2023-03-15T04:06:52.906Z,10.10
2023-03-15T04:07:52.888Z,11.20
2023-03-15T04:08:52.879Z,8.50
2023-03-15T04:09:52.882Z,14.70
2023-03-15T04:10:52.912Z,7.50
2023-03-15T04:11:52.857Z,11.40
2023-03-15T04:12:52.828Z,12.00
2023-03-15T04:13:52.826Z,9.20
2023-03-15T04:14:52.818Z,7.90
2023-03-15T04:15:52.814Z,10.10
2023-03-15T04:17:00.294Z,11.60
2023-03-15T04:17:52.771Z,9.90
2023-03-15T04:18:52.764Z,11.60
2023-03-15T04:19:52.745Z,13.00
2023-03-15T04:20:52.744Z,10.30
2023-03-15T04:21:52.710Z,12.60
2023-03-15T04:22:52.740Z,14.30
2023-03-15T04:23:52.692Z,8.00
2023-03-15T04:24:52.699Z,11.00
2023-03-15T04:25:52.672Z,12.30
2023-03-15T04:26:52.651Z,10.90
2023-03-15T04:27:52.642Z,12.30
2023-03-15T04:28:52.650Z,12.60
2023-03-15T04:29:52.621Z,8.10
2023-03-15T04:30:52.632Z,13.80
2023-03-15T04:31:52.586Z,13.40
2023-03-15T04:32:52.637Z,14.10
2023-03-15T04:33:52.572Z,20.70
2023-03-15T04:34:52.572Z,10.30
2023-03-15T04:35:52.609Z,11.00
2023-03-15T04:36:52.528Z,13.40
2023-03-15T04:37:52.545Z,13.00
2023-03-15T04:38:52.498Z,16.00
2023-03-15T04:39:52.572Z,14.40
2023-03-15T04:40:52.500Z,12.60
2023-03-15T04:41:52.469Z,14.80
2023-03-15T04:42:59.967Z,12.20
2023-03-15T04:44:00.945Z,12.60
2023-03-15T04:44:59.945Z,15.40
2023-03-15T04:46:01.144Z,12.70
2023-03-15T04:46:59.954Z,11.60
2023-03-15T04:47:52.375Z,11.20
2023-03-15T04:49:00.903Z,14.40
2023-03-15T04:49:59.875Z,13.50
2023-03-15T04:51:01.058Z,17.60
2023-03-15T04:51:59.823Z,14.20
2023-03-15T04:52:59.854Z,14.90
2023-03-15T04:53:52.313Z,14.70
2023-03-15T04:54:59.800Z,18.10
2023-03-15T04:56:03.679Z,16.10
2023-03-15T04:56:59.774Z,14.20
2023-03-15T04:57:52.252Z,12.50
2023-03-15T04:58:52.247Z,16.40
2023-03-15T04:59:52.238Z,12.20
2023-03-15T05:00:52.239Z,15.20
2023-03-15T05:01:52.293Z,16.40
2023-03-15T05:02:52.201Z,14.40
2023-03-15T05:03:52.198Z,16.20
2023-03-15T05:04:52.182Z,13.80
2023-03-15T05:05:52.181Z,14.30
2023-03-15T05:06:52.158Z,11.10
2023-03-15T05:07:52.146Z,18.40
2023-03-15T05:08:52.131Z,13.50
2023-03-15T05:09:52.117Z,16.40
2023-03-15T05:10:52.129Z,14.00
2023-03-15T05:11:59.600Z,17.60
2023-03-15T05:12:52.087Z,16.90
2023-03-15T05:13:52.069Z,19.40
2023-03-15T05:14:54.158Z,15.20
2023-03-15T05:15:52.051Z,14.40
2023-03-15T05:16:52.035Z,15.10
2023-03-15T05:17:52.001Z,16.90
2023-03-15T05:18:52.008Z,18.10
2023-03-15T05:19:51.999Z,15.90
2023-03-15T05:20:51.992Z,13.20
2023-03-15T05:21:51.958Z,16.90
2023-03-15T05:22:51.984Z,14.00
2023-03-15T05:23:51.940Z,14.90
2023-03-15T05:24:51.939Z,13.50
2023-03-15T05:25:51.919Z,17.20
2023-03-15T05:26:51.900Z,22.40
2023-03-15T05:27:51.879Z,17.00
2023-03-15T05:28:51.884Z,18.60
2023-03-15T05:29:51.862Z,19.90
2023-03-15T05:30:51.852Z,14.10
2023-03-15T05:31:51.863Z,18.80
2023-03-15T05:32:51.829Z,16.00
2023-03-15T05:33:51.816Z,16.30
2023-03-15T05:34:51.802Z,18.70
2023-03-15T05:35:51.827Z,16.20
2023-03-15T05:36:51.781Z,13.60
2023-03-15T05:37:51.752Z,15.80
2023-03-15T05:38:51.784Z,15.90
2023-03-15T05:39:51.760Z,17.10
2023-03-15T05:40:51.736Z,17.00
2023-03-15T05:41:51.720Z,18.90
2023-03-15T05:42:51.689Z,14.80
2023-03-15T05:43:51.678Z,16.40
2023-03-15T05:44:51.673Z,17.70
2023-03-15T05:45:51.719Z,17.00
2023-03-15T05:46:51.647Z,19.80
2023-03-15T05:47:51.626Z,17.70
2023-03-15T05:48:51.610Z,16.10
2023-03-15T05:49:51.596Z,22.00
2023-03-15T05:50:51.612Z,14.90
2023-03-15T05:51:51.568Z,21.50
2023-03-15T05:52:51.562Z,16.70
2023-03-15T05:53:51.538Z,18.00
2023-03-15T05:54:51.529Z,19.60
2023-03-15T05:55:51.536Z,17.30
2023-03-15T05:56:51.506Z,18.20
2023-03-15T05:57:51.511Z,19.80
2023-03-15T05:58:51.486Z,15.50
2023-03-15T05:59:52.675Z,16.80
2023-03-15T06:00:51.477Z,20.30
2023-03-15T06:01:51.455Z,18.00
2023-03-15T06:02:51.434Z,18.80
2023-03-15T06:03:51.472Z,20.10
2023-03-15T06:04:51.406Z,18.30
2023-03-15T06:05:51.408Z,18.20
2023-03-15T06:06:51.394Z,16.00
2023-03-15T06:07:51.368Z,17.90
2023-03-15T06:08:51.357Z,21.90
2023-03-15T06:09:51.336Z,16.80
2023-03-15T06:10:51.335Z,20.50
2023-03-15T06:11:51.330Z,15.80
2023-03-15T06:12:51.316Z,17.10
2023-03-15T06:13:51.278Z,18.10
2023-03-15T06:14:51.286Z,17.40
2023-03-15T06:15:51.284Z,18.50
2023-03-15T06:16:51.310Z,21.80
2023-03-15T06:17:51.238Z,18.10
2023-03-15T06:18:51.216Z,21.10
2023-03-15T06:19:51.206Z,20.10
2023-03-15T06:20:51.206Z,18.40
2023-03-15T06:21:51.204Z,17.10
2023-03-15T06:22:51.175Z,15.50
2023-03-15T06:23:51.155Z,14.80
2023-03-15T06:24:51.147Z,20.80
2023-03-15T06:25:51.145Z,15.90
2023-03-15T06:26:51.135Z,16.50
2023-03-15T06:27:51.104Z,15.70
2023-03-15T06:28:51.111Z,17.00
2023-03-15T06:29:51.108Z,15.10
2023-03-15T06:30:51.121Z,18.80
2023-03-15T06:31:51.045Z,18.30
2023-03-15T06:32:51.086Z,13.70
2023-03-15T06:33:51.048Z,19.70
2023-03-15T06:34:51.021Z,16.00
2023-03-15T06:35:51.061Z,16.00
2023-03-15T06:36:51.000Z,18.20
2023-03-15T06:37:51.071Z,16.40
2023-03-15T06:38:50.967Z,13.80
2023-03-15T06:39:50.957Z,15.90
2023-03-15T06:40:50.958Z,15.50
2023-03-15T06:41:50.928Z,17.40
2023-03-15T06:42:50.917Z,14.70
2023-03-15T06:43:50.910Z,16.20
2023-03-15T06:44:51.291Z,13.70
2023-03-15T06:45:50.919Z,19.20
2023-03-15T06:46:50.868Z,17.90
2023-03-15T06:47:50.882Z,20.60
2023-03-15T06:48:50.844Z,19.50
2023-03-15T06:49:50.859Z,15.90
2023-03-15T06:50:50.836Z,18.50
2023-03-15T06:51:50.807Z,17.50
2023-03-15T06:52:50.787Z,15.20
2023-03-15T06:53:50.774Z,16.30
2023-03-15T06:54:50.764Z,17.20
2023-03-15T06:55:50.791Z,20.80
2023-03-15T06:56:50.753Z,14.60
2023-03-15T06:57:50.718Z,20.30
2023-03-15T06:58:50.728Z,15.90
2023-03-15T06:59:50.712Z,16.20
2023-03-15T07:00:50.704Z,14.30
2023-03-15T07:01:50.781Z,15.30
2023-03-15T07:02:50.689Z,14.40
2023-03-15T07:03:50.660Z,16.50
2023-03-15T07:04:50.644Z,15.50
2023-03-15T07:05:50.645Z,12.30
2023-03-15T07:06:50.620Z,14.80
2023-03-15T07:07:50.616Z,16.20
2023-03-15T07:08:50.597Z,14.50
2023-03-15T07:09:50.583Z,14.70
2023-03-15T07:10:50.613Z,12.50
2023-03-15T07:11:50.593Z,12.00
2023-03-15T07:12:50.529Z,14.30
2023-03-15T07:13:50.552Z,13.60
2023-03-15T07:14:50.531Z,15.70
2023-03-15T07:15:50.521Z,14.90
2023-03-15T07:16:50.484Z,11.90
2023-03-15T07:17:50.494Z,13.30
2023-03-15T07:18:50.456Z,11.70
2023-03-15T07:19:56.498Z,18.00
2023-03-15T07:20:51.462Z,11.50
2023-03-15T07:21:50.424Z,14.30
2023-03-15T07:22:50.403Z,14.40
2023-03-15T07:23:50.407Z,15.10
2023-03-15T07:24:50.392Z,13.70
2023-03-15T07:25:55.051Z,13.40
2023-03-15T07:26:51.386Z,12.90
2023-03-15T07:27:50.374Z,11.60
2023-03-15T07:28:50.348Z,14.10
2023-03-15T07:29:50.351Z,14.60
2023-03-15T07:30:50.319Z,15.60
2023-03-15T07:31:50.363Z,16.00
2023-03-15T07:32:50.451Z,11.70
2023-03-15T07:33:50.294Z,10.60
2023-03-15T07:34:50.266Z,13.00
2023-03-15T07:35:50.285Z,13.70
2023-03-15T07:36:50.234Z,14.90
2023-03-15T07:37:50.239Z,10.50
2023-03-15T07:38:50.216Z,10.00
2023-03-15T07:39:50.203Z,12.80
2023-03-15T07:40:50.215Z,11.90
2023-03-15T07:41:50.172Z,11.50
2023-03-15T07:42:50.141Z,11.80
2023-03-15T07:43:50.155Z,11.20
2023-03-15T07:44:50.147Z,12.10
2023-03-15T07:45:50.138Z,13.20
2023-03-15T07:46:50.122Z,12.00
2023-03-15T07:47:50.091Z,11.80
2023-03-15T07:48:50.711Z,12.90
2023-03-15T07:49:50.077Z,14.70
2023-03-15T07:50:50.088Z,11.40
2023-03-15T07:51:50.038Z,12.60
2023-03-15T07:52:50.030Z,10.10
2023-03-15T07:53:50.013Z,11.20
2023-03-15T07:54:50.023Z,12.20
2023-03-15T07:55:50.004Z,13.00
2023-03-15T07:56:50.002Z,10.10
2023-03-15T07:57:52.188Z,9.50
2023-03-15T07:58:49.983Z,13.40
2023-03-15T07:59:49.941Z,8.80
2023-03-15T08:00:49.935Z,9.70
2023-03-15T08:01:49.959Z,11.60
2023-03-15T08:02:49.936Z,12.40
2023-03-15T08:03:49.892Z,11.80
2023-03-15T08:04:49.861Z,14.90
2023-03-15T08:05:49.867Z,10.50
2023-03-15T08:06:49.853Z,10.40
2023-03-15T08:07:49.895Z,13.50
2023-03-15T08:08:49.808Z,9.50
2023-03-15T08:09:49.808Z,9.90
2023-03-15T08:10:49.870Z,13.60
2023-03-15T08:11:49.779Z,13.80
2023-03-15T08:12:49.828Z,11.40
2023-03-15T08:13:49.750Z,13.10
2023-03-15T08:14:49.762Z,8.80
2023-03-15T08:15:49.752Z,11.10
2023-03-15T08:16:49.736Z,10.70
2023-03-15T08:17:49.726Z,12.80
2023-03-15T08:18:49.698Z,10.00
2023-03-15T08:19:49.692Z,13.20
2023-03-15T08:20:49.691Z,9.80
2023-03-15T08:21:49.649Z,8.70
2023-03-15T08:22:49.653Z,10.10
2023-03-15T08:23:49.625Z,10.00
2023-03-15T08:24:49.619Z,9.90
2023-03-15T08:25:49.620Z,14.00
2023-03-15T08:26:49.590Z,10.50
2023-03-15T08:27:49.674Z,9.90
2023-03-15T08:28:49.549Z,10.30
2023-03-15T08:29:49.554Z,9.60
2023-03-15T08:30:49.540Z,9.50
2023-03-15T08:31:49.609Z,9.60
2023-03-15T08:32:49.540Z,10.50
2023-03-15T08:33:49.505Z,13.10
2023-03-15T08:34:49.499Z,7.40
2023-03-15T08:35:49.524Z,6.80
2023-03-15T08:36:49.496Z,9.20
2023-03-15T08:37:49.527Z,8.50
2023-03-15T08:38:49.431Z,9.30
2023-03-15T08:39:49.423Z,10.40
2023-03-15T08:40:49.421Z,7.30
2023-03-15T08:41:49.398Z,8.10
2023-03-15T08:42:49.381Z,10.80
2023-03-15T08:43:49.363Z,7.30
2023-03-15T08:44:49.348Z,13.00
2023-03-15T08:46:00.530Z,7.60
2023-03-15T08:46:50.410Z,10.20
2023-03-15T08:47:49.374Z,9.50
2023-03-15T08:48:49.295Z,13.70
2023-03-15T08:49:49.281Z,8.90
2023-03-15T08:50:49.288Z,10.10
2023-03-15T08:51:49.269Z,8.10
2023-03-15T08:52:49.253Z,8.90
2023-03-15T08:53:49.238Z,9.60
2023-03-15T08:54:49.230Z,9.50
2023-03-15T08:55:49.234Z,8.90
2023-03-15T08:56:49.200Z,9.70
2023-03-15T08:57:49.193Z,9.70
2023-03-15T08:58:49.161Z,7.60
2023-03-15T08:59:49.177Z,10.40
2023-03-15T09:00:49.158Z,25.60
2023-03-15T09:01:49.157Z,6.70
2023-03-15T09:02:49.138Z,9.40
2023-03-15T09:03:49.097Z,11.80
2023-03-15T09:04:49.111Z,8.30
2023-03-15T09:05:49.099Z,10.70
2023-03-15T09:06:49.071Z,7.90
2023-03-15T09:07:49.060Z,8.20
2023-03-15T09:08:49.059Z,9.80
2023-03-15T09:09:49.034Z,8.50
2023-03-15T09:10:49.027Z,10.90
2023-03-15T09:11:49.006Z,9.90
2023-03-15T09:12:49.016Z,10.60
2023-03-15T09:13:48.993Z,9.70
2023-03-15T09:14:48.956Z,8.60
2023-03-15T09:15:48.987Z,9.10
2023-03-15T09:16:49.008Z,8.40
2023-03-15T09:17:48.949Z,9.10
2023-03-15T09:18:48.921Z,9.20
2023-03-15T09:19:48.905Z,7.90
2023-03-15T09:20:48.896Z,9.50
2023-03-15T09:21:48.870Z,10.70
2023-03-15T09:22:48.862Z,8.20
2023-03-15T09:23:48.846Z,11.90
2023-03-15T09:24:50.385Z,9.90
2023-03-15T09:25:48.856Z,8.80
2023-03-15T09:26:48.815Z,7.90
2023-03-15T09:27:48.805Z,9.30
2023-03-15T09:28:48.776Z,13.00
2023-03-15T09:29:48.801Z,8.20
2023-03-15T09:30:48.836Z,9.60
2023-03-15T09:31:48.749Z,12.70
2023-03-15T09:32:48.801Z,10.30
2023-03-15T09:33:48.718Z,9.90
2023-03-15T09:34:48.791Z,9.90
2023-03-15T09:35:48.743Z,9.40
2023-03-15T09:36:48.819Z,8.50
2023-03-15T09:37:48.673Z,9.20
2023-03-15T09:38:48.683Z,11.20
2023-03-15T09:39:48.691Z,12.30
2023-03-15T09:40:48.639Z,12.80
2023-03-15T09:41:48.632Z,12.80
2023-03-15T09:42:48.613Z,9.20
2023-03-15T09:43:48.598Z,11.80
2023-03-15T09:44:48.597Z,11.50
2023-03-15T09:45:48.607Z,10.90
2023-03-15T09:46:48.794Z,6.70
2023-03-15T10:02:59.217Z,7.40
2023-03-15T10:03:59.282Z,9.70
2023-03-15T10:04:59.160Z,9.10
2023-03-15T10:05:59.188Z,11.00
2023-03-15T10:06:59.199Z,7.50
2023-03-15T10:07:59.131Z,10.80
2023-03-15T10:08:59.137Z,9.60
2023-03-15T10:09:59.120Z,9.20
2023-03-15T10:10:59.116Z,10.00
2023-03-15T10:11:59.193Z,7.90
2023-03-15T10:12:59.100Z,10.70
2023-03-15T10:13:59.109Z,8.10
2023-03-15T10:14:59.056Z,9.30
2023-03-15T10:15:59.093Z,7.90
2023-03-15T10:16:59.185Z,6.70
2023-03-15T10:17:59.051Z,9.60
2023-03-15T10:18:58.981Z,8.20
2023-03-15T10:19:59.000Z,8.10
2023-03-15T10:20:58.972Z,9.30
2023-03-15T10:21:59.093Z,10.90
2023-03-15T10:22:58.938Z,8.90
2023-03-15T10:23:58.932Z,7.00
2023-03-15T10:24:58.948Z,6.20
2023-03-15T10:25:58.910Z,8.30
2023-03-15T10:26:59.035Z,7.30
2023-03-15T10:27:58.881Z,9.70
2023-03-15T10:28:58.865Z,9.60
2023-03-15T10:29:58.856Z,8.30
2023-03-15T10:30:58.892Z,7.80
2023-03-15T10:31:58.986Z,8.40
2023-03-15T10:32:58.890Z,9.70
2023-03-15T10:33:58.800Z,8.90
2023-03-15T10:34:58.872Z,7.70
2023-03-15T10:36:10.711Z,8.40
2023-03-15T10:36:59.772Z,9.90
2023-03-15T10:37:58.753Z,8.70
2023-03-15T10:38:58.749Z,6.40
2023-03-15T10:39:58.754Z,8.90
2023-03-15T10:40:58.715Z,10.30
2023-03-15T10:41:58.845Z,8.70
2023-03-15T10:42:58.685Z,6.60
2023-03-15T10:43:58.670Z,8.10
2023-03-15T10:44:58.663Z,5.80
2023-03-15T10:45:58.649Z,10.80
2023-03-15T10:46:58.791Z,6.80
2023-03-15T10:48:00.675Z,6.40
2023-03-15T10:48:58.724Z,7.80
2023-03-15T10:49:58.608Z,17.20
2023-03-15T10:50:59.355Z,9.10
2023-03-15T10:51:58.568Z,7.20
2023-03-15T10:52:58.580Z,7.20
2023-03-15T10:53:58.537Z,7.70
2023-03-15T10:55:03.958Z,9.80
2023-03-15T10:55:59.515Z,9.40
2023-03-15T10:56:58.515Z,6.90
2023-03-15T10:57:58.487Z,7.20
2023-03-15T10:59:11.584Z,8.50
2023-03-15T10:59:59.457Z,6.70
2023-03-15T11:00:58.455Z,8.40
2023-03-15T11:01:58.473Z,6.40
2023-03-15T11:02:58.469Z,11.40
2023-03-15T11:03:58.407Z,6.40
2023-03-15T11:04:58.395Z,6.70
2023-03-15T11:05:58.392Z,6.00
2023-03-15T11:06:58.378Z,7.30
2023-03-15T11:07:58.366Z,6.40
2023-03-15T11:08:58.344Z,8.50
2023-03-15T11:09:58.326Z,7.20
2023-03-15T11:10:58.331Z,5.10
2023-03-15T11:11:58.387Z,7.40
2023-03-15T11:12:58.290Z,7.10
2023-03-15T11:13:58.289Z,6.40
2023-03-15T11:14:58.267Z,7.50
2023-03-15T11:15:58.296Z,7.30
2023-03-15T11:16:58.251Z,6.30
2023-03-15T11:17:58.227Z,5.80
2023-03-15T11:18:58.208Z,6.60
2023-03-15T11:19:58.202Z,8.10
2023-03-15T11:20:58.209Z,6.20
2023-03-15T11:21:58.242Z,8.90
2023-03-15T11:22:58.168Z,5.40
2023-03-15T11:23:58.147Z,7.50
2023-03-15T11:24:58.348Z,7.60
2023-03-15T11:25:58.136Z,6.80
2023-03-15T11:26:58.119Z,5.60
2023-03-15T11:27:58.105Z,9.20
2023-03-15T11:28:59.708Z,7.30
2023-03-15T11:29:58.070Z,7.70
2023-03-15T11:30:58.058Z,7.30
2023-03-15T11:31:58.046Z,5.80
2023-03-15T11:32:58.125Z,6.20
2023-03-15T11:33:58.020Z,5.90
2023-03-15T11:34:58.017Z,8.50
2023-03-15T11:35:58.025Z,10.00
2023-03-15T11:37:07.521Z,5.10
2023-03-15T11:38:12.863Z,7.20
2023-03-15T11:38:59.341Z,10.40
2023-03-15T11:40:08.787Z,6.60
2023-03-15T11:40:58.941Z,10.30
2023-03-15T11:41:57.920Z,7.90
2023-03-15T11:42:57.902Z,5.50
2023-03-15T11:43:57.900Z,11.20
2023-03-15T11:44:57.880Z,9.00
2023-03-15T11:45:57.933Z,7.20
2023-03-15T11:46:57.887Z,9.20
2023-03-15T11:47:57.838Z,8.60
2023-03-15T11:48:57.826Z,6.10
2023-03-15T11:49:57.822Z,7.80
2023-03-15T11:50:57.824Z,5.40
2023-03-15T11:51:57.844Z,5.90
2023-03-15T11:52:57.782Z,7.60
2023-03-15T11:53:57.751Z,8.50
2023-03-15T11:54:57.747Z,8.90
2023-03-15T11:55:57.741Z,6.90
2023-03-15T11:56:57.736Z,10.10
2023-03-15T11:57:57.785Z,8.70
2023-03-15T11:58:59.121Z,6.30
2023-03-15T11:59:57.827Z,9.30
2023-03-15T12:00:57.683Z,6.80
2023-03-15T12:01:57.838Z,10.60
2023-03-15T12:02:57.695Z,11.60
2023-03-15T12:03:57.631Z,8.70
2023-03-15T12:05:01.748Z,8.80
2023-03-15T12:05:58.622Z,7.10
2023-03-15T12:06:57.617Z,9.00
2023-03-15T12:07:57.585Z,8.30
2023-03-15T12:08:57.571Z,7.40
2023-03-15T12:09:57.553Z,11.10
2023-03-15T12:10:57.561Z,8.00
2023-03-15T12:11:57.534Z,6.70
2023-03-15T12:12:57.615Z,5.20
2023-03-15T12:13:57.502Z,7.10
2023-03-15T12:14:57.532Z,6.10
2023-03-15T12:15:57.515Z,7.40
2023-03-15T12:16:57.476Z,8.20
2023-03-15T12:17:57.570Z,9.30
2023-03-15T12:18:57.446Z,6.70
2023-03-15T12:19:57.427Z,6.00
2023-03-15T12:20:57.544Z,7.10
2023-03-15T12:21:57.412Z,7.90
2023-03-15T12:22:58.320Z,10.80
2023-03-15T12:23:57.372Z,7.30
2023-03-15T12:24:57.372Z,6.60
2023-03-15T12:25:57.355Z,6.80
2023-03-15T12:26:57.345Z,6.90
2023-03-15T12:27:57.373Z,6.50
2023-03-15T12:28:57.320Z,4.30
2023-03-15T12:29:57.300Z,5.70
2023-03-15T12:30:57.446Z,4.60
2023-03-15T12:31:57.298Z,4.50
2023-03-15T12:32:57.310Z,5.10
2023-03-15T12:33:57.249Z,6.30
2023-03-15T12:34:57.251Z,5.10
2023-03-15T12:35:57.247Z,5.30
2023-03-15T12:36:57.258Z,3.00
2023-03-15T12:37:57.192Z,5.00
2023-03-15T12:38:57.179Z,4.80
2023-03-15T12:39:57.167Z,5.40
2023-03-15T12:40:57.170Z,7.00
2023-03-15T12:41:57.154Z,6.10
2023-03-15T12:42:57.157Z,6.70
2023-03-15T12:43:57.109Z,5.40
2023-03-15T12:44:57.099Z,5.30
2023-03-15T12:45:57.148Z,5.60
2023-03-15T12:46:57.106Z,3.80
2023-03-15T12:47:57.074Z,3.00
2023-03-15T12:48:57.058Z,4.10
2023-03-15T12:49:57.038Z,3.90
2023-03-15T12:50:57.037Z,5.10
2023-03-15T12:51:59.279Z,3.90
2023-03-15T12:52:57.012Z,4.80
2023-03-15T12:53:56.978Z,4.30
2023-03-15T12:54:56.981Z,5.50
2023-03-15T12:56:07.901Z,4.00
2023-03-15T12:56:58.003Z,5.40
2023-03-15T12:57:56.947Z,4.00
2023-03-15T12:58:56.932Z,4.70
2023-03-15T12:59:56.899Z,4.10
2023-03-15T13:00:56.912Z,6.20
2023-03-15T13:01:56.888Z,4.60
2023-03-15T13:02:56.969Z,4.40
2023-03-15T13:03:56.853Z,5.50
2023-03-15T13:04:56.846Z,4.10
2023-03-15T13:06:03.944Z,4.70
2023-03-15T13:06:57.842Z,3.80
2023-03-15T13:07:56.855Z,4.70
2023-03-15T13:08:56.813Z,3.80
2023-03-15T13:09:56.783Z,4.50
2023-03-15T13:10:56.779Z,4.10
2023-03-15T13:11:56.762Z,6.50
2023-03-15T13:12:56.740Z,4.70
2023-03-15T13:13:56.731Z,3.50
2023-03-15T13:14:56.721Z,4.10
2023-03-15T13:15:56.714Z,3.70
2023-03-15T13:16:56.737Z,5.30
2023-03-15T13:17:56.679Z,4.70
2023-03-15T13:18:56.675Z,4.90
2023-03-15T13:19:56.670Z,6.00
2023-03-15T13:20:56.651Z,4.10
2023-03-15T13:21:56.623Z,3.80
2023-03-15T13:22:56.621Z,3.90
2023-03-15T13:23:56.622Z,2.80
2023-03-15T13:24:56.592Z,3.70
2023-03-15T13:25:56.598Z,6.20
2023-03-15T13:26:56.552Z,4.40
2023-03-15T13:27:56.547Z,5.20
2023-03-15T13:28:56.540Z,4.40
2023-03-15T13:29:56.530Z,5.90
2023-03-15T13:30:56.577Z,5.60
2023-03-15T13:31:56.500Z,4.20
2023-03-15T13:32:56.551Z,4.50
2023-03-15T13:33:56.471Z,4.20